createdAt,value
2022-11-13T00:01:25.451Z,48.93
2022-11-13T00:04:10.953Z,52.33
2022-11-13T00:06:59.529Z,55.80
2022-11-13T00:09:45.092Z,35.43
2022-11-13T00:12:31.457Z,35.77
2022-11-13T00:15:17.860Z,32.53
2022-11-13T00:18:04.208Z,32.27
2022-11-13T00:20:49.441Z,30.77
2022-11-13T00:23:36.000Z,23.27
2022-11-13T00:26:27.821Z,23.80
2022-11-13T00:29:13.034Z,22.90
2022-11-13T00:31:58.144Z,22.37
2022-11-13T00:34:48.124Z,23.23
2022-11-13T00:37:34.475Z,20.57
2022-11-13T00:40:19.890Z,22.23
2022-11-13T00:43:05.234Z,19.90
2022-11-13T00:45:50.707Z,17.50
2022-11-13T00:48:36.928Z,19.70
2022-11-13T00:51:22.594Z,19.63
2022-11-13T00:54:07.722Z,18.90
2022-11-13T00:56:52.974Z,21.40
2022-11-13T00:59:40.595Z,20.77
2022-11-13T01:02:26.101Z,24.57
2022-11-13T01:05:11.454Z,24.77
2022-11-13T01:07:57.021Z,21.63
2022-11-13T01:10:53.774Z,27.53
2022-11-13T01:13:41.629Z,29.13
2022-11-13T01:16:27.945Z,29.93
2022-11-13T01:19:14.381Z,29.43
2022-11-13T01:21:59.779Z,37.67
2022-11-13T01:24:44.926Z,35.37
2022-11-13T01:27:30.594Z,42.47
2022-11-13T01:30:16.589Z,44.87
2022-11-13T01:33:03.564Z,36.37
2022-11-13T01:35:49.092Z,32.17
2022-11-13T01:38:36.998Z,28.77
2022-11-13T01:41:32.741Z,30.47
2022-11-13T01:44:19.370Z,29.40
2022-11-13T01:47:07.246Z,25.23
2022-11-13T01:49:57.632Z,34.93
2022-11-13T01:52:43.137Z,33.97
2022-11-13T01:55:29.214Z,31.93
2022-11-13T01:58:14.702Z,40.33
2022-11-13T02:01:00.059Z,35.00
2022-11-13T02:03:45.805Z,39.23
2022-11-13T02:06:49.391Z,38.10
2022-11-13T02:09:43.329Z,38.00
2022-11-13T02:12:33.248Z,33.80
2022-11-13T02:15:40.936Z,26.80
2022-11-13T02:18:29.815Z,23.37
2022-11-13T02:21:42.512Z,21.97
2022-11-13T02:24:32.636Z,26.10
2022-11-13T02:27:32.524Z,26.40
2022-11-13T02:30:26.903Z,24.43
2022-11-13T02:33:22.719Z,17.03
2022-11-13T02:36:11.918Z,22.47
2022-11-13T02:39:02.114Z,27.53
2022-11-13T02:41:47.354Z,21.77
2022-11-13T02:44:32.903Z,26.20
2022-11-13T02:47:18.303Z,22.40
2022-11-13T02:50:04.643Z,23.97
2022-11-13T02:52:50.345Z,19.70
2022-11-13T02:55:35.900Z,20.13
2022-11-13T02:58:22.249Z,24.00
2022-11-13T03:01:07.583Z,31.83
2022-11-13T03:04:00.015Z,26.47
2022-11-13T03:06:45.304Z,17.53
2022-11-13T03:09:31.498Z,25.50
2022-11-13T03:12:16.726Z,31.33
2022-11-13T03:15:02.422Z,24.03
2022-11-13T03:17:48.002Z,33.70
2022-11-13T03:20:35.657Z,29.57
2022-11-13T03:23:21.116Z,22.97
2022-11-13T03:26:11.537Z,20.93
2022-11-13T03:28:57.363Z,18.40
2022-11-13T03:31:44.262Z,16.63
2022-11-13T03:34:29.397Z,17.27
2022-11-13T03:37:14.799Z,15.37
2022-11-13T03:40:00.115Z,16.93
2022-11-13T03:42:45.827Z,19.20
2022-11-13T03:45:33.099Z,19.97
2022-11-13T03:48:18.294Z,18.70
2022-11-13T03:51:04.029Z,19.20
2022-11-13T03:53:49.134Z,18.57
2022-11-13T03:56:34.130Z,14.47
2022-11-13T03:59:19.136Z,13.87
2022-11-13T04:02:05.529Z,18.23
2022-11-13T04:04:51.138Z,11.23
2022-11-13T04:07:36.755Z,10.63
2022-11-13T04:10:24.958Z,9.40
2022-11-13T04:13:10.324Z,10.57
2022-11-13T04:15:55.822Z,9.83
2022-11-13T04:18:40.980Z,10.30
2022-11-13T04:21:27.711Z,9.30
2022-11-13T04:24:13.641Z,10.10
2022-11-13T04:26:58.774Z,8.93
2022-11-13T04:29:43.845Z,10.77
2022-11-13T04:32:30.546Z,13.83
2022-11-13T04:35:18.230Z,9.03
2022-11-13T04:38:03.572Z,8.43
2022-11-13T04:40:51.471Z,10.70
2022-11-13T04:43:37.440Z,9.63
2022-11-13T04:46:22.807Z,11.93
2022-11-13T04:49:09.053Z,11.63
2022-11-13T04:51:54.183Z,11.27
2022-11-13T04:54:39.426Z,12.60
2022-11-13T04:57:24.907Z,8.40
2022-11-13T05:00:14.719Z,9.50
2022-11-13T05:03:00.888Z,8.37
2022-11-13T05:05:46.567Z,10.00
2022-11-13T05:08:31.934Z,9.57
2022-11-13T05:11:17.209Z,7.57
2022-11-13T05:14:03.578Z,9.03
2022-11-13T05:16:50.110Z,7.80
2022-11-13T05:19:35.837Z,7.53
2022-11-13T05:22:20.910Z,7.83
2022-11-13T05:25:06.931Z,8.00
2022-11-13T05:27:52.045Z,9.37
2022-11-13T05:30:37.509Z,7.57
2022-11-13T05:33:22.719Z,7.33
2022-11-13T05:36:12.403Z,8.17
2022-11-13T05:38:58.774Z,7.03
2022-11-13T05:41:46.188Z,7.80
2022-11-13T05:44:31.497Z,8.17
2022-11-13T05:47:17.218Z,7.53
2022-11-13T05:50:02.854Z,7.33
2022-11-13T05:52:48.960Z,8.87
2022-11-13T05:55:34.454Z,9.27
2022-11-13T05:58:19.721Z,11.60
2022-11-13T06:01:08.129Z,6.87
2022-11-13T06:03:55.349Z,7.80
2022-11-13T06:06:42.401Z,7.77
2022-11-13T06:09:27.888Z,7.73
2022-11-13T06:12:13.207Z,7.97
2022-11-13T06:14:58.520Z,8.27
2022-11-13T06:17:48.739Z,10.53
2022-11-13T06:20:37.582Z,9.33
2022-11-13T06:23:22.551Z,10.60
2022-11-13T06:26:14.845Z,7.53
2022-11-13T06:29:01.289Z,8.90
2022-11-13T06:31:46.722Z,8.13
2022-11-13T06:34:38.162Z,7.53
2022-11-13T06:37:23.183Z,7.97
2022-11-13T06:40:09.125Z,7.20
2022-11-13T06:42:57.523Z,8.13
2022-11-13T06:45:42.706Z,9.33
2022-11-13T06:48:28.363Z,8.77
2022-11-13T06:51:16.786Z,10.70
2022-11-13T06:54:02.133Z,9.97
2022-11-13T06:56:48.122Z,9.57
2022-11-13T06:59:33.165Z,10.73
2022-11-13T07:02:19.169Z,7.50
2022-11-13T07:05:05.362Z,9.10
2022-11-13T07:07:52.570Z,8.67
2022-11-13T07:10:38.315Z,8.23
2022-11-13T07:13:25.535Z,7.27
2022-11-13T07:16:19.123Z,8.80
2022-11-13T07:19:04.736Z,7.23
2022-11-13T07:21:50.261Z,7.23
2022-11-13T07:24:35.421Z,9.43
2022-11-13T07:27:20.716Z,8.83
2022-11-13T07:30:06.815Z,7.07
2022-11-13T07:32:52.366Z,8.50
2022-11-13T07:35:37.374Z,8.33
2022-11-13T07:38:23.597Z,7.40
2022-11-13T07:41:08.894Z,7.60
2022-11-13T07:43:54.462Z,10.30
2022-11-13T07:46:39.544Z,8.43
2022-11-13T07:49:24.780Z,8.80
2022-11-13T07:52:10.079Z,7.83
2022-11-13T07:54:55.696Z,8.93
2022-11-13T07:57:41.107Z,9.47
2022-11-13T08:00:28.462Z,8.50
2022-11-13T08:03:15.989Z,7.83
2022-11-13T08:06:07.843Z,9.00
2022-11-13T08:08:53.762Z,8.87
2022-11-13T08:11:38.870Z,7.87
2022-11-13T08:14:24.349Z,8.47
2022-11-13T08:17:10.792Z,7.67
2022-11-13T08:19:56.644Z,9.40
2022-11-13T08:22:42.051Z,10.83
2022-11-13T08:25:28.188Z,8.13
2022-11-13T08:28:13.689Z,9.97
2022-11-13T08:31:00.767Z,9.73
2022-11-13T08:33:45.873Z,8.10
2022-11-13T08:36:31.442Z,6.67
2022-11-13T08:39:17.245Z,8.40
2022-11-13T08:42:04.242Z,8.63
2022-11-13T08:44:49.516Z,9.73
2022-11-13T08:47:34.522Z,17.77
2022-11-13T08:50:19.736Z,16.70
2022-11-13T08:53:05.848Z,16.50
2022-11-13T08:55:51.050Z,15.87
2022-11-13T08:58:36.340Z,13.23
2022-11-13T09:01:22.917Z,10.90
2022-11-13T09:04:10.925Z,8.40
2022-11-13T09:06:56.921Z,10.20
2022-11-13T09:09:42.410Z,11.00
2022-11-13T09:12:27.601Z,11.20
2022-11-13T09:15:13.035Z,11.37
2022-11-13T09:18:00.340Z,11.70
2022-11-13T09:20:45.974Z,11.27
2022-11-13T09:23:31.654Z,9.17
2022-11-13T09:26:18.348Z,7.27
2022-11-13T09:29:03.936Z,9.23
2022-11-13T09:31:50.153Z,8.00
2022-11-13T09:34:35.145Z,10.03
2022-11-13T09:37:21.403Z,9.53
2022-11-13T09:40:11.678Z,10.80
2022-11-13T09:42:57.325Z,10.37
2022-11-13T09:45:44.044Z,9.70
2022-11-13T09:48:42.262Z,9.57
2022-11-13T09:51:38.577Z,10.53
2022-11-13T09:54:24.044Z,10.17
2022-11-13T09:57:29.919Z,14.13
2022-11-13T10:00:22.338Z,14.83
2022-11-13T10:03:54.016Z,11.53
2022-11-13T10:06:39.131Z,13.27
2022-11-13T10:09:48.205Z,14.10
2022-11-13T10:12:33.998Z,14.80
2022-11-13T10:15:28.843Z,13.30
2022-11-13T10:18:21.295Z,14.57
2022-11-13T10:21:26.067Z,12.87
2022-11-13T10:24:18.735Z,15.30
2022-11-13T10:27:09.953Z,12.80
2022-11-13T10:29:56.104Z,11.33
2022-11-13T10:32:42.178Z,10.83
2022-11-13T10:35:47.113Z,12.30
2022-11-13T10:38:38.805Z,14.50
2022-11-13T10:41:24.470Z,13.47
2022-11-13T10:44:20.185Z,13.83
2022-11-13T10:47:36.068Z,15.63
2022-11-13T10:50:30.242Z,17.70
2022-11-13T10:53:17.675Z,15.80
2022-11-13T10:56:13.550Z,14.53
2022-11-13T10:59:14.912Z,13.23
2022-11-13T11:02:16.112Z,19.10
2022-11-13T11:05:20.277Z,15.77
2022-11-13T11:08:10.135Z,13.90
2022-11-13T11:11:19.863Z,18.33
2022-11-13T11:14:22.548Z,16.13
2022-11-13T11:17:12.739Z,16.17
2022-11-13T11:20:07.260Z,16.10
2022-11-13T11:23:02.248Z,15.50
2022-11-13T11:25:55.513Z,13.27
2022-11-13T11:28:52.429Z,15.50
2022-11-13T11:31:56.429Z,12.73
2022-11-13T11:34:54.952Z,11.40
2022-11-13T11:38:25.527Z,13.43
2022-11-13T11:41:17.169Z,10.73
2022-11-13T11:44:13.812Z,9.20
2022-11-13T11:46:58.855Z,12.20
2022-11-13T11:49:45.405Z,14.23
2022-11-13T11:52:54.534Z,11.93
2022-11-13T11:56:00.096Z,9.67
2022-11-13T11:59:16.096Z,10.53
2022-11-13T12:02:31.148Z,12.30
2022-11-13T12:05:20.333Z,9.73
2022-11-13T12:08:22.939Z,11.27
2022-11-13T12:11:28.508Z,8.77
2022-11-13T12:14:33.223Z,11.03
2022-11-13T12:17:39.636Z,8.77
2022-11-13T12:21:10.332Z,11.57
2022-11-13T12:24:14.021Z,8.77
2022-11-13T12:27:41.989Z,9.63
2022-11-13T12:30:41.311Z,10.93
2022-11-13T12:34:00.905Z,9.53
2022-11-13T12:36:47.683Z,8.90
2022-11-13T12:39:52.303Z,11.07
2022-11-13T12:42:49.750Z,10.70
2022-11-13T12:45:50.431Z,8.80
2022-11-13T12:48:38.830Z,10.40
2022-11-13T12:51:24.345Z,9.00
2022-11-13T12:54:10.865Z,14.53
2022-11-13T12:57:14.455Z,20.47
2022-11-13T13:00:21.528Z,31.33
2022-11-13T13:03:13.183Z,19.70
2022-11-13T13:06:13.358Z,17.80
2022-11-13T13:09:27.354Z,35.23
2022-11-13T13:12:50.261Z,25.37
2022-11-13T13:15:38.591Z,21.57
2022-11-13T13:18:28.805Z,12.87
2022-11-13T13:21:19.613Z,10.17
2022-11-13T13:24:27.246Z,11.00
2022-11-13T13:27:27.314Z,11.00
2022-11-13T13:30:22.577Z,9.27
2022-11-13T13:33:31.303Z,10.77
2022-11-13T13:36:23.871Z,11.13
2022-11-13T13:39:25.763Z,9.30
2022-11-13T13:42:36.338Z,7.27
2022-11-13T13:45:27.434Z,9.50
2022-11-13T13:48:19.333Z,8.90
2022-11-13T13:51:19.725Z,7.43
2022-11-13T13:54:08.206Z,9.47
2022-11-13T13:56:56.109Z,8.00
2022-11-13T13:59:44.965Z,8.10
2022-11-13T14:02:31.226Z,9.90
2022-11-13T14:05:29.786Z,7.20
2022-11-13T14:08:20.733Z,7.70
2022-11-13T14:11:34.483Z,8.57
2022-11-13T14:14:22.515Z,8.57
2022-11-13T14:17:10.031Z,8.50
2022-11-13T14:20:00.787Z,8.87
2022-11-13T14:22:53.279Z,8.67
2022-11-13T14:25:43.810Z,8.10
2022-11-13T14:28:31.975Z,6.23
2022-11-13T14:31:17.683Z,9.20
2022-11-13T14:34:10.612Z,5.93
2022-11-13T14:36:56.168Z,7.97
2022-11-13T14:39:47.066Z,7.60
2022-11-13T14:42:37.724Z,6.13
2022-11-13T14:45:32.045Z,7.33
2022-11-13T14:48:22.758Z,7.60
2022-11-13T14:51:28.875Z,4.30
2022-11-13T14:55:08.011Z,6.37
2022-11-13T14:57:49.711Z,5.50
2022-11-13T15:00:37.896Z,7.00
2022-11-13T15:03:24.663Z,4.70
2022-11-13T15:06:19.372Z,4.97
2022-11-13T15:09:16.495Z,5.17
2022-11-13T15:12:05.759Z,7.40
2022-11-13T15:14:51.459Z,13.67
2022-11-13T15:17:36.829Z,9.73
2022-11-13T15:20:27.571Z,9.63
2022-11-13T15:23:15.548Z,10.97
2022-11-13T15:26:00.739Z,11.80
2022-11-13T15:28:46.082Z,10.57
2022-11-13T15:31:42.524Z,8.23
2022-11-13T15:34:29.084Z,6.13
2022-11-13T15:37:16.541Z,7.00
2022-11-13T15:40:02.281Z,8.33
2022-11-13T15:42:48.094Z,7.63
2022-11-13T15:45:34.222Z,8.50
2022-11-13T15:48:19.754Z,6.73
2022-11-13T15:51:05.402Z,10.47
2022-11-13T15:54:13.762Z,10.77
2022-11-13T15:56:58.856Z,7.63
2022-11-13T15:59:43.964Z,7.60
2022-11-13T16:02:31.645Z,8.10
2022-11-13T16:05:17.316Z,8.83
2022-11-13T16:08:03.527Z,7.57
2022-11-13T16:10:48.874Z,13.07
2022-11-13T16:13:34.030Z,9.83
2022-11-13T16:16:23.533Z,10.53
2022-11-13T16:19:15.012Z,9.67
2022-11-13T16:22:00.167Z,9.00
2022-11-13T16:24:48.715Z,13.03
2022-11-13T16:27:34.455Z,14.83
2022-11-13T16:30:23.295Z,13.87
2022-11-13T16:33:12.771Z,9.63
2022-11-13T16:35:59.372Z,11.93
2022-11-13T16:38:45.158Z,14.13
2022-11-13T16:41:31.851Z,14.53
2022-11-13T16:44:18.374Z,12.40
2022-11-13T16:47:05.520Z,16.57
2022-11-13T16:49:51.216Z,12.40
2022-11-13T16:52:36.659Z,12.57
2022-11-13T16:55:21.815Z,16.90
2022-11-13T16:58:07.280Z,13.97
2022-11-13T17:00:59.791Z,14.83
2022-11-13T17:03:45.948Z,15.33
2022-11-13T17:06:34.465Z,15.00
2022-11-13T17:09:19.987Z,13.10
2022-11-13T17:12:05.482Z,20.97
2022-11-13T17:14:50.446Z,17.23
2022-11-13T17:17:35.798Z,13.30
2022-11-13T17:20:22.277Z,18.33
2022-11-13T17:23:11.246Z,17.87
2022-11-13T17:25:56.390Z,17.37
2022-11-13T17:28:41.679Z,16.80
2022-11-13T17:31:27.680Z,17.07
2022-11-13T17:34:13.058Z,16.50
2022-11-13T17:36:58.464Z,17.13
2022-11-13T17:39:43.641Z,16.77
2022-11-13T17:42:30.890Z,14.17
2022-11-13T17:45:16.138Z,14.37
2022-11-13T17:48:02.199Z,13.83
2022-11-13T17:50:57.520Z,12.23
2022-11-13T17:53:42.861Z,15.07
2022-11-13T17:56:28.415Z,15.40
2022-11-13T17:59:14.070Z,14.23
2022-11-13T18:02:00.482Z,14.27
2022-11-13T18:04:46.144Z,15.80
2022-11-13T18:07:34.817Z,14.93
2022-11-13T18:10:19.906Z,16.33
2022-11-13T18:13:05.869Z,15.03
2022-11-13T18:15:51.339Z,16.70
2022-11-13T18:18:37.331Z,16.07
2022-11-13T18:21:25.357Z,13.50
2022-11-13T18:24:16.329Z,16.57
2022-11-13T18:27:01.956Z,16.30
2022-11-13T18:29:47.400Z,15.80
2022-11-13T18:32:32.732Z,12.53
2022-11-13T18:35:17.908Z,13.27
2022-11-13T18:38:03.327Z,14.63
2022-11-13T18:40:48.478Z,14.20
2022-11-13T18:43:34.093Z,14.43
2022-11-13T18:46:23.491Z,14.90
2022-11-13T18:49:09.324Z,15.27
2022-11-13T18:51:54.661Z,19.30
2022-11-13T18:54:40.250Z,14.50
2022-11-13T18:57:26.124Z,11.33
2022-11-13T19:00:11.757Z,14.40
2022-11-13T19:02:58.216Z,10.37
2022-11-13T19:05:47.378Z,13.87
2022-11-13T19:08:38.210Z,12.40
2022-11-13T19:11:28.060Z,12.67
2022-11-13T19:14:15.528Z,15.17
2022-11-13T19:17:00.691Z,13.43
2022-11-13T19:19:46.145Z,14.47
2022-11-13T19:22:32.267Z,13.53
2022-11-13T19:25:17.606Z,13.90
2022-11-13T19:28:07.852Z,13.97
2022-11-13T19:30:56.391Z,12.83
2022-11-13T19:33:41.821Z,15.17
2022-11-13T19:36:28.943Z,12.70
2022-11-13T19:39:14.271Z,16.37
2022-11-13T19:41:59.893Z,15.70
2022-11-13T19:44:45.519Z,14.30
2022-11-13T19:47:31.152Z,11.67
2022-11-13T19:50:16.939Z,14.00
2022-11-13T19:53:02.196Z,13.40
2022-11-13T19:55:55.302Z,13.23
2022-11-13T19:58:44.335Z,12.30
2022-11-13T20:01:31.742Z,19.30
2022-11-13T20:04:17.840Z,20.03
2022-11-13T20:07:03.236Z,19.80
2022-11-13T20:09:48.389Z,20.77
2022-11-13T20:12:35.335Z,22.00
2022-11-13T20:15:20.541Z,17.83
2022-11-13T20:18:05.898Z,23.00
2022-11-13T20:20:54.686Z,21.13
2022-11-13T20:23:40.885Z,17.77
2022-11-13T20:26:27.381Z,20.37
2022-11-13T20:29:15.903Z,19.60
2022-11-13T20:32:04.650Z,18.00
2022-11-13T20:34:49.978Z,20.00
2022-11-13T20:37:35.720Z,19.23
2022-11-13T20:40:21.845Z,21.37
2022-11-13T20:43:07.111Z,17.83
2022-11-13T20:46:11.922Z,20.60
2022-11-13T20:48:57.569Z,20.53
2022-11-13T20:51:45.236Z,22.33
2022-11-13T20:54:33.818Z,16.77
2022-11-13T20:57:21.473Z,22.47
2022-11-13T21:00:07.370Z,19.47
2022-11-13T21:02:52.930Z,16.77
2022-11-13T21:05:38.361Z,14.57
2022-11-13T21:08:23.733Z,16.20
2022-11-13T21:11:19.632Z,17.43
2022-11-13T21:14:05.550Z,17.17
2022-11-13T21:16:51.692Z,16.87
2022-11-13T21:19:37.145Z,15.30
2022-11-13T21:22:22.829Z,16.83
2022-11-13T21:25:08.228Z,24.30
2022-11-13T21:27:55.008Z,20.37
2022-11-13T21:30:40.288Z,20.43
2022-11-13T21:33:26.033Z,20.33
2022-11-13T21:36:16.756Z,20.40
2022-11-13T21:39:02.054Z,24.70
2022-11-13T21:41:47.430Z,21.13
2022-11-13T21:44:32.465Z,19.80
2022-11-13T21:47:17.615Z,21.90
2022-11-13T21:50:08.819Z,16.07
2022-11-13T21:52:54.217Z,16.87
2022-11-13T21:55:39.542Z,15.00
2022-11-13T21:58:33.136Z,16.60
2022-11-13T22:01:18.920Z,15.07
2022-11-13T22:04:04.460Z,15.23
2022-11-13T22:06:51.237Z,15.57
2022-11-13T22:09:38.125Z,15.77
2022-11-13T22:12:24.220Z,16.30
2022-11-13T22:15:10.715Z,14.60
2022-11-13T22:17:56.011Z,14.07
2022-11-13T22:20:41.515Z,17.30
2022-11-13T22:23:27.918Z,15.70
2022-11-13T22:26:15.044Z,19.30
2022-11-13T22:29:00.649Z,20.17
2022-11-13T22:31:47.994Z,16.80
2022-11-13T22:34:33.539Z,21.10
2022-11-13T22:37:18.798Z,19.70
2022-11-13T22:40:04.338Z,21.43
2022-11-13T22:42:49.647Z,23.87
2022-11-13T22:45:34.848Z,22.30
2022-11-13T22:48:20.053Z,22.97
2022-11-13T22:51:14.630Z,24.47
2022-11-13T22:54:04.201Z,26.13
2022-11-13T22:56:49.820Z,28.83
2022-11-13T22:59:35.199Z,25.73
2022-11-13T23:02:20.339Z,24.17
2022-11-13T23:05:06.006Z,24.17
2022-11-13T23:07:53.016Z,28.97
2022-11-13T23:10:38.467Z,27.90
2022-11-13T23:13:24.956Z,24.80
2022-11-13T23:16:14.124Z,23.70
2022-11-13T23:19:00.782Z,28.10
2022-11-13T23:21:46.518Z,22.47
2022-11-13T23:24:33.215Z,22.80
2022-11-13T23:27:18.938Z,26.30
2022-11-13T23:30:04.585Z,22.13
2022-11-13T23:32:50.153Z,29.30
2022-11-13T23:35:35.683Z,22.80
2022-11-13T23:38:21.605Z,28.90
2022-11-13T23:41:07.236Z,22.43
2022-11-13T23:44:09.541Z,29.60
2022-11-13T23:46:55.042Z,26.53
2022-11-13T23:49:40.612Z,24.60
2022-11-13T23:52:26.326Z,21.13
2022-11-13T23:55:11.635Z,23.57
2022-11-13T23:58:02.124Z,27.00
